Terminal Aerodrome Forecast
Issued by NWS Charleston, WV

Home | Current Version | Previous Version | Text Only | Print | Product List | Glossary On
Versions: 1 2 3 4 5 6 7 8 9 10 11 12 13 14 15 16 17 18 19 20 21 22 23 24 25 26 27 28
678
FTUS41 KRLX 250540
TAFBKW
TAF
KBKW 250540Z 2506/2606 16010G17KT P6SM BKN070
     FM251000 18012KT 5SM SHRA BKN070
     FM251100 22017G37KT 2SM +SHRA OVC015
      TEMPO 2511/2513 OVC009
     FM251400 27013G25KT P6SM OVC012
     FM251600 28014G25KT P6SM OVC035
     FM260000 29013G22KT P6SM BKN027=

USA.gov is the U.S. government's official web portal to all federal, state and local government web resources and services.